sensor_id;sensor_type;location;lat;lon;timestamp;pressure;altitude;pressure_sealevel;temperature;humidity
74552;BME280;63025;55.472;38.432;2023-01-29T00:00:01;100509.16;;;-1.15;83.52
74552;BME280;63025;55.472;38.432;2023-01-29T00:02:29;100500.25;;;-1.14;83.27
74552;BME280;63025;55.472;38.432;2023-01-29T00:04:55;100512.47;;;-1.13;82.93
74552;BME280;63025;55.472;38.432;2023-01-29T00:07:20;100507.69;;;-1.08;83.07
74552;BME280;63025;55.472;38.432;2023-01-29T00:09:46;100508.31;;;-1.16;83.24
74552;BME280;63025;55.472;38.432;2023-01-29T00:12:12;100500.97;;;-1.12;83.64
74552;BME280;63025;55.472;38.432;2023-01-29T00:14:38;100506.59;;;-1.05;82.87
74552;BME280;63025;55.472;38.432;2023-01-29T00:17:03;100499.06;;;-1.10;83.09
74552;BME280;63025;55.472;38.432;2023-01-29T00:19:29;100499.78;;;-1.08;83.18
74552;BME280;63025;55.472;38.432;2023-01-29T00:21:55;100494.00;;;-1.13;82.78
74552;BME280;63025;55.472;38.432;2023-01-29T00:24:20;100492.59;;;-1.06;82.75
74552;BME280;63025;55.472;38.432;2023-01-29T00:26:46;100477.00;;;-1.09;83.14
74552;BME280;63025;55.472;38.432;2023-01-29T00:29:14;100487.44;;;-1.19;82.95
74552;BME280;63025;55.472;38.432;2023-01-29T00:31:43;100491.03;;;-1.20;82.82
74552;BME280;63025;55.472;38.432;2023-01-29T00:34:09;100484.44;;;-1.14;82.92
74552;BME280;63025;55.472;38.432;2023-01-29T00:36:35;100477.25;;;-1.23;82.96
74552;BME280;63025;55.472;38.432;2023-01-29T00:39:01;100482.50;;;-1.12;83.09
74552;BME280;63025;55.472;38.432;2023-01-29T00:41:35;100487.53;;;-1.09;83.06
74552;BME280;63025;55.472;38.432;2023-01-29T00:44:20;100493.53;;;-1.07;82.75
74552;BME280;63025;55.472;38.432;2023-01-29T00:47:05;100483.47;;;-1.13;82.50
74552;BME280;63025;55.472;38.432;2023-01-29T00:49:51;100483.22;;;-1.10;82.50
74552;BME280;63025;55.472;38.432;2023-01-29T00:52:17;100482.03;;;-1.06;82.71
74552;BME280;63025;55.472;38.432;2023-01-29T00:54:50;100474.88;;;-1.15;82.69
74552;BME280;63025;55.472;38.432;2023-01-29T00:57:15;100473.19;;;-1.16;82.47
74552;BME280;63025;55.472;38.432;2023-01-29T00:59:41;100466.81;;;-1.14;82.60
74552;BME280;63025;55.472;38.432;2023-01-29T01:02:07;100454.00;;;-1.18;83.03
74552;BME280;63025;55.472;38.432;2023-01-29T01:04:51;100458.31;;;-1.17;82.63
74552;BME280;63025;55.472;38.432;2023-01-29T01:07:17;100462.88;;;-1.19;82.48
74552;BME280;63025;55.472;38.432;2023-01-29T01:09:43;100462.16;;;-1.21;82.62
74552;BME280;63025;55.472;38.432;2023-01-29T01:12:29;100457.50;;;-1.18;82.55
74552;BME280;63025;55.472;38.432;2023-01-29T01:14:54;100450.31;;;-1.27;82.55
74552;BME280;63025;55.472;38.432;2023-01-29T01:17:20;100450.56;;;-1.30;82.91
74552;BME280;63025;55.472;38.432;2023-01-29T01:19:46;100450.31;;;-1.27;82.33
74552;BME280;63025;55.472;38.432;2023-01-29T01:22:12;100457.13;;;-1.24;82.74
74552;BME280;63025;55.472;38.432;2023-01-29T01:24:38;100459.53;;;-1.21;82.54
74552;BME280;63025;55.472;38.432;2023-01-29T01:27:05;100451.41;;;-1.29;82.37
74552;BME280;63025;55.472;38.432;2023-01-29T01:29:31;100448.75;;;-1.29;82.86
74552;BME280;63025;55.472;38.432;2023-01-29T01:31:56;100450.09;;;-1.35;82.55
74552;BME280;63025;55.472;38.432;2023-01-29T01:34:22;100443.41;;;-1.39;82.69
74552;BME280;63025;55.472;38.432;2023-01-29T01:36:48;100441.84;;;-1.41;82.74
74552;BME280;63025;55.472;38.432;2023-01-29T01:39:14;100433.47;;;-1.46;82.80
74552;BME280;63025;55.472;38.432;2023-01-29T01:41:40;100441.22;;;-1.45;82.54
74552;BME280;63025;55.472;38.432;2023-01-29T01:44:06;100434.41;;;-1.36;82.82
74552;BME280;63025;55.472;38.432;2023-01-29T01:46:36;100438.72;;;-1.35;82.68
74552;BME280;63025;55.472;38.432;2023-01-29T01:49:15;100437.41;;;-1.41;82.70
74552;BME280;63025;55.472;38.432;2023-01-29T01:51:46;100439.69;;;-1.36;82.79
74552;BME280;63025;55.472;38.432;2023-01-29T01:54:28;100439.19;;;-1.30;82.50
74552;BME280;63025;55.472;38.432;2023-01-29T01:56:58;100436.03;;;-1.24;82.36
74552;BME280;63025;55.472;38.432;2023-01-29T01:59:36;100434.00;;;-1.21;82.04
74552;BME280;63025;55.472;38.432;2023-01-29T02:02:03;100434.84;;;-1.20;81.84
74552;BME280;63025;55.472;38.432;2023-01-29T02:04:48;100428.13;;;-1.24;81.82
74552;BME280;63025;55.472;38.432;2023-01-29T02:07:33;100425.03;;;-1.29;81.89
74552;BME280;63025;55.472;38.432;2023-01-29T02:10:18;100425.88;;;-1.29;81.86
74552;BME280;63025;55.472;38.432;2023-01-29T02:12:45;100428.41;;;-1.27;81.79
74552;BME280;63025;55.472;38.432;2023-01-29T02:15:12;100418.81;;;-1.28;82.06
74552;BME280;63025;55.472;38.432;2023-01-29T02:17:38;100422.91;;;-1.35;81.89
74552;BME280;63025;55.472;38.432;2023-01-29T02:39:09;100397.97;;;-1.42;81.49
74552;BME280;63025;55.472;38.432;2023-01-29T02:41:42;100396.56;;;-1.46;81.33
74552;BME280;63025;55.472;38.432;2023-01-29T02:44:39;100388.41;;;-1.43;81.46
74552;BME280;63025;55.472;38.432;2023-01-29T02:47:24;100378.56;;;-1.41;81.50
74552;BME280;63025;55.472;38.432;2023-01-29T02:50:02;100379.81;;;-1.45;81.49
74552;BME280;63025;55.472;38.432;2023-01-29T02:52:41;100384.81;;;-1.42;81.51
74552;BME280;63025;55.472;38.432;2023-01-29T02:55:17;100380.25;;;-1.40;81.60
74552;BME280;63025;55.472;38.432;2023-01-29T02:57:47;100382.44;;;-1.45;81.53
74552;BME280;63025;55.472;38.432;2023-01-29T03:00:19;100376.56;;;-1.49;81.54
74552;BME280;63025;55.472;38.432;2023-01-29T03:08:53;100375.25;;;-1.55;81.96
74552;BME280;63025;55.472;38.432;2023-01-29T03:11:20;100361.75;;;-1.61;82.02
74552;BME280;63025;55.472;38.432;2023-01-29T03:13:55;100353.84;;;-1.61;81.95
74552;BME280;63025;55.472;38.432;2023-01-29T03:16:39;100353.47;;;-1.57;81.73
74552;BME280;63025;55.472;38.432;2023-01-29T03:19:14;100360.78;;;-1.60;81.85
74552;BME280;63025;55.472;38.432;2023-01-29T03:21:45;100349.28;;;-1.59;81.77
74552;BME280;63025;55.472;38.432;2023-01-29T03:24:47;100346.53;;;-1.58;81.74
74552;BME280;63025;55.472;38.432;2023-01-29T03:31:00;100328.38;;;-1.72;81.67
74552;BME280;63025;55.472;38.432;2023-01-29T03:33:58;100334.81;;;-1.65;81.22
74552;BME280;63025;55.472;38.432;2023-01-29T03:36:38;100321.38;;;-1.62;81.10
74552;BME280;63025;55.472;38.432;2023-01-29T03:39:12;100319.00;;;-1.65;81.16
74552;BME280;63025;55.472;38.432;2023-01-29T03:42:09;100328.13;;;-1.69;81.60
74552;BME280;63025;55.472;38.432;2023-01-29T03:44:48;100328.84;;;-1.67;81.09
74552;BME280;63025;55.472;38.432;2023-01-29T03:53:30;100321.38;;;-1.62;81.20
74552;BME280;63025;55.472;38.432;2023-01-29T03:56:06;100317.19;;;-1.64;81.21
74552;BME280;63025;55.472;38.432;2023-01-29T03:58:41;100309.41;;;-1.66;80.77
74552;BME280;63025;55.472;38.432;2023-01-29T04:06:30;100307.41;;;-1.73;81.34
74552;BME280;63025;55.472;38.432;2023-01-29T04:09:06;100306.84;;;-1.77;81.31
74552;BME280;63025;55.472;38.432;2023-01-29T04:11:42;100295.59;;;-1.79;81.27
74552;BME280;63025;55.472;38.432;2023-01-29T04:14:10;100286.00;;;-1.80;81.02
74552;BME280;63025;55.472;38.432;2023-01-29T04:16:40;100278.56;;;-1.75;81.14
74552;BME280;63025;55.472;38.432;2023-01-29T04:19:15;100283.13;;;-1.77;80.70
74552;BME280;63025;55.472;38.432;2023-01-29T04:21:42;100275.59;;;-1.81;80.99
74552;BME280;63025;55.472;38.432;2023-01-29T04:24:09;100280.38;;;-1.87;81.10
74552;BME280;63025;55.472;38.432;2023-01-29T04:26:53;100288.44;;;-1.88;81.15
74552;BME280;63025;55.472;38.432;2023-01-29T04:32:41;100281.38;;;-1.88;80.60
74552;BME280;63025;55.472;38.432;2023-01-29T04:38:20;100282.69;;;-1.93;80.50
74552;BME280;63025;55.472;38.432;2023-01-29T04:43:43;100275.41;;;-2.01;80.33
74552;BME280;63025;55.472;38.432;2023-01-29T04:46:46;100274.56;;;-2.01;80.23
74552;BME280;63025;55.472;38.432;2023-01-29T04:49:26;100254.50;;;-2.13;80.42
74552;BME280;63025;55.472;38.432;2023-01-29T04:52:15;100259.75;;;-2.13;80.58
74552;BME280;63025;55.472;38.432;2023-01-29T04:57:25;100263.59;;;-2.17;80.92
74552;BME280;63025;55.472;38.432;2023-01-29T05:02:30;100271.88;;;-2.22;80.58
74552;BME280;63025;55.472;38.432;2023-01-29T05:04:59;100269.47;;;-2.25;80.48
74552;BME280;63025;55.472;38.432;2023-01-29T05:07:26;100267.91;;;-2.28;80.29
74552;BME280;63025;55.472;38.432;2023-01-29T05:09:54;100264.81;;;-2.22;80.16
74552;BME280;63025;55.472;38.432;2023-01-29T05:12:23;100274.63;;;-2.24;80.58
74552;BME280;63025;55.472;38.432;2023-01-29T05:14:51;100267.06;;;-2.28;80.07
74552;BME280;63025;55.472;38.432;2023-01-29T05:17:19;100261.69;;;-2.27;80.25
74552;BME280;63025;55.472;38.432;2023-01-29T05:19:45;100270.31;;;-2.25;79.69
74552;BME280;63025;55.472;38.432;2023-01-29T05:22:14;100265.28;;;-2.28;80.23
74552;BME280;63025;55.472;38.432;2023-01-29T05:24:41;100271.16;;;-2.24;80.00
74552;BME280;63025;55.472;38.432;2023-01-29T05:27:20;100264.94;;;-2.34;79.19
74552;BME280;63025;55.472;38.432;2023-01-29T05:30:05;100263.16;;;-2.34;78.91
74552;BME280;63025;55.472;38.432;2023-01-29T05:32:31;100264.59;;;-2.30;78.47
74552;BME280;63025;55.472;38.432;2023-01-29T05:34:57;100261.22;;;-2.32;78.29
74552;BME280;63025;55.472;38.432;2023-01-29T05:37:23;100264.47;;;-2.39;78.16
74552;BME280;63025;55.472;38.432;2023-01-29T05:39:49;100269.03;;;-2.41;77.85
74552;BME280;63025;55.472;38.432;2023-01-29T05:42:15;100257.44;;;-2.50;78.24
74552;BME280;63025;55.472;38.432;2023-01-29T05:44:40;100253.00;;;-2.49;77.72
74552;BME280;63025;55.472;38.432;2023-01-29T05:47:06;100254.81;;;-2.50;77.61
74552;BME280;63025;55.472;38.432;2023-01-29T05:49:32;100264.09;;;-2.46;77.29
74552;BME280;63025;55.472;38.432;2023-01-29T05:51:57;100259.81;;;-2.47;76.81
74552;BME280;63025;55.472;38.432;2023-01-29T05:54:23;100260.41;;;-2.54;76.93
74552;BME280;63025;55.472;38.432;2023-01-29T05:56:49;100263.53;;;-2.49;76.57
74552;BME280;63025;55.472;38.432;2023-01-29T05:59:15;100262.19;;;-2.44;76.43
74552;BME280;63025;55.472;38.432;2023-01-29T06:01:41;100264.34;;;-2.38;76.27
74552;BME280;63025;55.472;38.432;2023-01-29T06:04:07;100265.06;;;-2.36;76.68
74552;BME280;63025;55.472;38.432;2023-01-29T06:06:33;100260.28;;;-2.42;75.96
74552;BME280;63025;55.472;38.432;2023-01-29T06:08:58;100262.19;;;-2.44;75.71
74552;BME280;63025;55.472;38.432;2023-01-29T06:11:24;100254.53;;;-2.36;75.66
74552;BME280;63025;55.472;38.432;2023-01-29T06:13:50;100256.81;;;-2.53;75.75
74552;BME280;63025;55.472;38.432;2023-01-29T06:16:16;100260.53;;;-2.45;75.51
74552;BME280;63025;55.472;38.432;2023-01-29T06:18:42;100264.72;;;-2.42;75.22
74552;BME280;63025;55.472;38.432;2023-01-29T06:21:10;100257.66;;;-2.42;74.83
74552;BME280;63025;55.472;38.432;2023-01-29T06:23:36;100264.59;;;-2.52;74.57
74552;BME280;63025;55.472;38.432;2023-01-29T06:26:07;100264.09;;;-2.46;74.56
74552;BME280;63025;55.472;38.432;2023-01-29T06:28:33;100256.69;;;-2.41;74.49
74552;BME280;63025;55.472;38.432;2023-01-29T06:31:01;100259.06;;;-2.38;74.65
74552;BME280;63025;55.472;38.432;2023-01-29T06:33:27;100254.66;;;-2.37;74.14
74552;BME280;63025;55.472;38.432;2023-01-29T06:35:59;100258.84;;;-2.35;74.12
74552;BME280;63025;55.472;38.432;2023-01-29T06:38:26;100255.84;;;-2.30;73.51
74552;BME280;63025;55.472;38.432;2023-01-29T06:40:52;100249.75;;;-2.31;73.62
74552;BME280;63025;55.472;38.432;2023-01-29T06:43:19;100255.75;;;-2.29;73.83
74552;BME280;63025;55.472;38.432;2023-01-29T06:45:55;100238.00;;;-2.27;73.92
74552;BME280;63025;55.472;38.432;2023-01-29T06:48:23;100249.50;;;-2.39;73.73
74552;BME280;63025;55.472;38.432;2023-01-29T06:50:49;100244.38;;;-2.29;74.04
74552;BME280;63025;55.472;38.432;2023-01-29T06:53:15;100254.19;;;-2.31;73.83
74552;BME280;63025;55.472;38.432;2023-01-29T06:55:43;100243.25;;;-2.27;73.29
74552;BME280;63025;55.472;38.432;2023-01-29T06:58:15;100243.66;;;-2.31;73.53
74552;BME280;63025;55.472;38.432;2023-01-29T07:00:40;100246.50;;;-2.34;73.71
74552;BME280;63025;55.472;38.432;2023-01-29T07:03:08;100246.63;;;-2.25;73.69
74552;BME280;63025;55.472;38.432;2023-01-29T07:05:34;100244.22;;;-2.28;73.65
74552;BME280;63025;55.472;38.432;2023-01-29T07:07:59;100238.38;;;-2.31;73.54
74552;BME280;63025;55.472;38.432;2023-01-29T07:10:25;100231.56;;;-2.34;73.78
74552;BME280;63025;55.472;38.432;2023-01-29T07:12:51;100222.94;;;-2.36;73.72
74552;BME280;63025;55.472;38.432;2023-01-29T07:15:17;100228.94;;;-2.45;73.91
74552;BME280;63025;55.472;38.432;2023-01-29T07:18:00;100224.63;;;-2.46;74.13
74552;BME280;63025;55.472;38.432;2023-01-29T07:20:27;100223.09;;;-2.48;74.48
74552;BME280;63025;55.472;38.432;2023-01-29T07:22:55;100231.13;;;-2.50;74.79
74552;BME280;63025;55.472;38.432;2023-01-29T07:25:21;100228.97;;;-2.56;74.25
74552;BME280;63025;55.472;38.432;2023-01-29T07:27:47;100238.53;;;-2.44;74.57
74552;BME280;63025;55.472;38.432;2023-01-29T07:30:14;100230.97;;;-2.48;74.57
74552;BME280;63025;55.472;38.432;2023-01-29T07:32:40;100221.28;;;-2.48;74.35
74552;BME280;63025;55.472;38.432;2023-01-29T07:35:06;100222.25;;;-2.49;74.55
74552;BME280;63025;55.472;38.432;2023-01-29T07:37:32;100215.47;;;-2.51;74.75
74552;BME280;63025;55.472;38.432;2023-01-29T07:39:58;100214.22;;;-2.47;74.94
74552;BME280;63025;55.472;38.432;2023-01-29T07:42:24;100216.75;;;-2.57;74.96
74552;BME280;63025;55.472;38.432;2023-01-29T07:44:49;100220.34;;;-2.47;75.25
74552;BME280;63025;55.472;38.432;2023-01-29T07:47:15;100217.72;;;-2.58;74.82
74552;BME280;63025;55.472;38.432;2023-01-29T07:49:41;100211.75;;;-2.60;75.08
74552;BME280;63025;55.472;38.432;2023-01-29T07:52:07;100207.91;;;-2.56;75.57
74552;BME280;63025;55.472;38.432;2023-01-29T07:54:32;100204.44;;;-2.56;75.53
74552;BME280;63025;55.472;38.432;2023-01-29T07:56:58;100204.09;;;-2.52;75.26
74552;BME280;63025;55.472;38.432;2023-01-29T07:59:24;100198.63;;;-2.60;74.91
74552;BME280;63025;55.472;38.432;2023-01-29T08:01:50;100200.00;;;-2.45;75.43
74552;BME280;63025;55.472;38.432;2023-01-29T08:04:15;100202.72;;;-2.35;74.66
74552;BME280;63025;55.472;38.432;2023-01-29T08:06:41;100198.94;;;-2.42;74.83
74552;BME280;63025;55.472;38.432;2023-01-29T08:09:07;100197.47;;;-2.35;74.91
74552;BME280;63025;55.472;38.432;2023-01-29T08:11:33;100204.16;;;-2.31;74.90
74552;BME280;63025;55.472;38.432;2023-01-29T08:13:59;100187.53;;;-2.32;74.32
74552;BME280;63025;55.472;38.432;2023-01-29T08:16:24;100195.78;;;-2.36;74.62
74552;BME280;63025;55.472;38.432;2023-01-29T08:18:50;100191.88;;;-2.42;74.61
74552;BME280;63025;55.472;38.432;2023-01-29T08:21:16;100191.88;;;-2.42;74.92
74552;BME280;63025;55.472;38.432;2023-01-29T08:23:42;100199.88;;;-2.32;74.45
74552;BME280;63025;55.472;38.432;2023-01-29T08:26:07;100211.19;;;-2.20;74.57
74552;BME280;63025;55.472;38.432;2023-01-29T08:28:33;100203.19;;;-2.19;74.61
74552;BME280;63025;55.472;38.432;2023-01-29T08:30:59;100210.44;;;-2.11;74.28
74552;BME280;63025;55.472;38.432;2023-01-29T08:33:26;100209.97;;;-2.16;73.92
74552;BME280;63025;55.472;38.432;2023-01-29T08:35:53;100203.50;;;-2.12;74.17
74552;BME280;63025;55.472;38.432;2023-01-29T08:38:19;100189.16;;;-2.08;74.13
74552;BME280;63025;55.472;38.432;2023-01-29T08:40:45;100185.81;;;-2.10;74.08
74552;BME280;63025;55.472;38.432;2023-01-29T08:43:12;100177.69;;;-2.18;73.65
74552;BME280;63025;55.472;38.432;2023-01-29T08:45:42;100185.72;;;-2.20;73.62
74552;BME280;63025;55.472;38.432;2023-01-29T08:48:09;100183.91;;;-2.19;73.86
74552;BME280;63025;55.472;38.432;2023-01-29T08:50:35;100168.81;;;-2.17;74.29
74552;BME280;63025;55.472;38.432;2023-01-29T08:53:03;100162.72;;;-2.18;74.13
74552;BME280;63025;55.472;38.432;2023-01-29T08:55:29;100165.69;;;-2.11;73.99
74552;BME280;63025;55.472;38.432;2023-01-29T08:57:55;100171.16;;;-2.03;73.74
74552;BME280;63025;55.472;38.432;2023-01-29T09:00:24;100170.31;;;-2.04;73.74
74552;BME280;63025;55.472;38.432;2023-01-29T09:02:49;100159.19;;;-2.07;73.30
74552;BME280;63025;55.472;38.432;2023-01-29T09:05:15;100157.56;;;-2.08;73.24
74552;BME280;63025;55.472;38.432;2023-01-29T09:07:41;100160.88;;;-2.06;73.62
74552;BME280;63025;55.472;38.432;2023-01-29T09:10:07;100157.75;;;-2.00;73.50
74552;BME280;63025;55.472;38.432;2023-01-29T09:12:33;100148.50;;;-1.95;73.14
74552;BME280;63025;55.472;38.432;2023-01-29T09:14:59;100155.38;;;-2.03;73.43
74552;BME280;63025;55.472;38.432;2023-01-29T09:17:40;100152.00;;;-2.05;73.47
74552;BME280;63025;55.472;38.432;2023-01-29T09:20:06;100155.38;;;-2.03;73.49
74552;BME280;63025;55.472;38.432;2023-01-29T09:22:32;100156.91;;;-2.01;73.34
74552;BME280;63025;55.472;38.432;2023-01-29T09:24:58;100144.31;;;-1.97;73.65
74552;BME280;63025;55.472;38.432;2023-01-29T09:27:23;100137.13;;;-1.95;73.70
74552;BME280;63025;55.472;38.432;2023-01-29T09:29:49;100141.00;;;-1.99;73.57
74552;BME280;63025;55.472;38.432;2023-01-29T09:32:15;100137.13;;;-1.95;73.01
74552;BME280;63025;55.472;38.432;2023-01-29T09:34:41;100141.00;;;-1.99;73.76
74552;BME280;63025;55.472;38.432;2023-01-29T09:37:06;100141.69;;;-1.97;73.32
74552;BME280;63025;55.472;38.432;2023-01-29T09:39:33;100144.53;;;-1.89;73.52
74552;BME280;63025;55.472;38.432;2023-01-29T09:42:20;100137.78;;;-1.82;73.38
74552;BME280;63025;55.472;38.432;2023-01-29T09:44:58;100139.22;;;-1.78;73.61
74552;BME280;63025;55.472;38.432;2023-01-29T09:47:32;100137.53;;;-1.79;73.49
74552;BME280;63025;55.472;38.432;2023-01-29T09:50:23;100133.53;;;-1.73;73.59
74552;BME280;63025;55.472;38.432;2023-01-29T09:53:10;100132.56;;;-1.72;72.94
74552;BME280;63025;55.472;38.432;2023-01-29T09:58:42;100116.97;;;-1.85;72.99
74552;BME280;63025;55.472;38.432;2023-01-29T10:01:20;100118.63;;;-1.84;73.42
74552;BME280;63025;55.472;38.432;2023-01-29T10:06:57;100111.19;;;-1.79;73.69
74552;BME280;63025;55.472;38.432;2023-01-29T10:14:27;100108.09;;;-1.84;73.67
74552;BME280;63025;55.472;38.432;2023-01-29T10:22:44;100095.88;;;-1.85;73.95
74552;BME280;63025;55.472;38.432;2023-01-29T10:25:18;100095.41;;;-1.79;74.15
74552;BME280;63025;55.472;38.432;2023-01-29T10:27:51;100088.94;;;-1.86;74.03
74552;BME280;63025;55.472;38.432;2023-01-29T10:30:27;100093.47;;;-1.77;74.19
74552;BME280;63025;55.472;38.432;2023-01-29T10:32:56;100075.59;;;-1.73;73.90
74552;BME280;63025;55.472;38.432;2023-01-29T10:38:14;100063.72;;;-1.68;73.45
74552;BME280;63025;55.472;38.432;2023-01-29T10:40:50;100078.28;;;-1.64;73.61
74552;BME280;63025;55.472;38.432;2023-01-29T10:43:52;100067.72;;;-1.64;73.70
74552;BME280;63025;55.472;38.432;2023-01-29T11:00:37;100020.47;;;-1.56;73.71
74552;BME280;63025;55.472;38.432;2023-01-29T11:03:23;100020.66;;;-1.48;73.51
74552;BME280;63025;55.472;38.432;2023-01-29T11:08:39;100008.31;;;-1.47;73.05
74552;BME280;63025;55.472;38.432;2023-01-29T11:11:13;100002.34;;;-1.49;73.31
74552;BME280;63025;55.472;38.432;2023-01-29T11:14:01;100004.25;;;-1.61;73.64
74552;BME280;63025;55.472;38.432;2023-01-29T11:16:42;99992.63;;;-1.49;73.64
74552;BME280;63025;55.472;38.432;2023-01-29T11:19:09;99976.03;;;-1.39;73.57
74552;BME280;63025;55.472;38.432;2023-01-29T11:21:51;99983.66;;;-1.36;73.44
74552;BME280;63025;55.472;38.432;2023-01-29T11:24:17;99964.41;;;-1.27;73.08
74552;BME280;63025;55.472;38.432;2023-01-29T11:26:45;99960.81;;;-1.07;72.91
74552;BME280;63025;55.472;38.432;2023-01-29T11:31:53;99957.91;;;-0.65;71.87
74552;BME280;63025;55.472;38.432;2023-01-29T11:34:23;99956.66;;;-0.81;71.65
74552;BME280;63025;55.472;38.432;2023-01-29T11:37:02;99958.59;;;-0.83;71.58
74552;BME280;63025;55.472;38.432;2023-01-29T11:39:29;99952.09;;;-0.98;71.55
74552;BME280;63025;55.472;38.432;2023-01-29T11:44:42;99968.88;;;-0.99;71.38
74552;BME280;63025;55.472;38.432;2023-01-29T11:47:14;99972.72;;;-1.13;71.76
74552;BME280;63025;55.472;38.432;2023-01-29T11:49:47;99965.78;;;-1.23;72.24
74552;BME280;63025;55.472;38.432;2023-01-29T11:52:25;99966.78;;;-1.05;72.25
74552;BME280;63025;55.472;38.432;2023-01-29T11:54:56;99967.91;;;-0.98;71.91
74552;BME280;63025;55.472;38.432;2023-01-29T11:59:53;99964.53;;;-1.19;72.12
74552;BME280;63025;55.472;38.432;2023-01-29T12:04:46;99967.84;;;-1.46;72.26
74552;BME280;63025;55.472;38.432;2023-01-29T12:07:17;99971.41;;;-1.57;72.90
74552;BME280;63025;55.472;38.432;2023-01-29T12:09:52;99966.13;;;-1.57;72.74
74552;BME280;63025;55.472;38.432;2023-01-29T12:12:40;99959.16;;;-1.67;73.74
74552;BME280;63025;55.472;38.432;2023-01-29T12:15:16;99958.13;;;-1.76;73.62
74552;BME280;63025;55.472;38.432;2023-01-29T12:17:49;99955.03;;;-1.60;73.75
74552;BME280;63025;55.472;38.432;2023-01-29T12:20:22;99952.09;;;-1.67;73.80
74552;BME280;63025;55.472;38.432;2023-01-29T12:25:37;99954.72;;;-1.67;73.93
74552;BME280;63025;55.472;38.432;2023-01-29T12:31:32;99949.72;;;-1.70;73.80
74552;BME280;63025;55.472;38.432;2023-01-29T12:34:04;99945.16;;;-1.68;73.74
74552;BME280;63025;55.472;38.432;2023-01-29T12:39:09;99954.19;;;-1.61;73.67
74552;BME280;63025;55.472;38.432;2023-01-29T12:41:42;99956.25;;;-1.64;73.64
74552;BME280;63025;55.472;38.432;2023-01-29T12:44:17;99943.19;;;-1.66;73.86
74552;BME280;63025;55.472;38.432;2023-01-29T12:46:49;99944.44;;;-1.70;73.82
74552;BME280;63025;55.472;38.432;2023-01-29T12:49:22;99932.63;;;-1.75;73.65
74552;BME280;63025;55.472;38.432;2023-01-29T12:52:20;99938.69;;;-1.85;74.53
74552;BME280;63025;55.472;38.432;2023-01-29T12:55:00;99930.25;;;-1.88;74.47
74552;BME280;63025;55.472;38.432;2023-01-29T12:57:39;99925.94;;;-1.89;74.81
74552;BME280;63025;55.472;38.432;2023-01-29T13:00:13;99925.66;;;-1.86;74.43
74552;BME280;63025;55.472;38.432;2023-01-29T13:05:49;99931.94;;;-1.87;74.64
74552;BME280;63025;55.472;38.432;2023-01-29T13:08:34;99925.41;;;-1.83;74.90
74552;BME280;63025;55.472;38.432;2023-01-29T13:11:05;99924.81;;;-1.87;74.55
74552;BME280;63025;55.472;38.432;2023-01-29T13:13:41;99933.00;;;-1.90;74.96
74552;BME280;63025;55.472;38.432;2023-01-29T13:16:11;99939.75;;;-1.97;74.72
74552;BME280;63025;55.472;38.432;2023-01-29T13:18:56;99938.13;;;-1.98;75.04
74552;BME280;63025;55.472;38.432;2023-01-29T13:21:30;99932.31;;;-1.92;75.29
74552;BME280;63025;55.472;38.432;2023-01-29T13:24:03;99931.19;;;-1.99;75.04
74552;BME280;63025;55.472;38.432;2023-01-29T13:26:30;99927.84;;;-2.01;75.24
74552;BME280;63025;55.472;38.432;2023-01-29T13:28:57;99930.75;;;-1.94;75.21
74552;BME280;63025;55.472;38.432;2023-01-29T13:31:38;99923.97;;;-1.97;75.58
74552;BME280;63025;55.472;38.432;2023-01-29T13:34:11;99915.09;;;-1.96;75.36
74552;BME280;63025;55.472;38.432;2023-01-29T13:36:44;99918.56;;;-1.95;75.82
74552;BME280;63025;55.472;38.432;2023-01-29T13:39:33;99918.44;;;-1.94;75.39
74552;BME280;63025;55.472;38.432;2023-01-29T13:42:14;99909.75;;;-2.15;75.91
74552;BME280;63025;55.472;38.432;2023-01-29T13:44:55;99912.00;;;-2.10;76.62
74552;BME280;63025;55.472;38.432;2023-01-29T13:47:28;99899.81;;;-2.11;76.46
74552;BME280;63025;55.472;38.432;2023-01-29T14:05:37;99899.31;;;-2.26;76.87
74552;BME280;63025;55.472;38.432;2023-01-29T14:10:42;99894.88;;;-2.26;77.22
74552;BME280;63025;55.472;38.432;2023-01-29T14:15:44;99894.84;;;-2.35;77.56
74552;BME280;63025;55.472;38.432;2023-01-29T14:20:38;99891.50;;;-2.37;77.71
74552;BME280;63025;55.472;38.432;2023-01-29T14:23:07;99898.44;;;-2.36;77.71
74552;BME280;63025;55.472;38.432;2023-01-29T14:25:44;99891.63;;;-2.39;78.14
74552;BME280;63025;55.472;38.432;2023-01-29T14:28:17;99899.50;;;-2.39;78.24
74552;BME280;63025;55.472;38.432;2023-01-29T14:30:46;99895.50;;;-2.43;77.73
74552;BME280;63025;55.472;38.432;2023-01-29T14:33:38;99892.41;;;-2.48;78.52
74552;BME280;63025;55.472;38.432;2023-01-29T14:36:10;99894.66;;;-2.43;78.17
74552;BME280;63025;55.472;38.432;2023-01-29T14:38:37;99887.16;;;-2.48;78.09
74552;BME280;63025;55.472;38.432;2023-01-29T14:41:17;99897.53;;;-2.46;78.62
74552;BME280;63025;55.472;38.432;2023-01-29T14:43:45;99885.75;;;-2.52;78.59
74552;BME280;63025;55.472;38.432;2023-01-29T14:48:59;99884.19;;;-2.34;78.19
74552;BME280;63025;55.472;38.432;2023-01-29T14:51:26;99872.81;;;-2.34;78.07
74552;BME280;63025;55.472;38.432;2023-01-29T14:54:33;99872.16;;;-2.27;78.84
74552;BME280;63025;55.472;38.432;2023-01-29T14:57:04;99871.78;;;-2.22;78.67
74552;BME280;63025;55.472;38.432;2023-01-29T14:59:36;99870.94;;;-2.23;77.88
74552;BME280;63025;55.472;38.432;2023-01-29T15:02:14;99871.66;;;-2.20;77.93
74552;BME280;63025;55.472;38.432;2023-01-29T15:04:46;99878.00;;;-2.23;78.23
74552;BME280;63025;55.472;38.432;2023-01-29T15:20:34;99859.09;;;-2.38;78.36
74552;BME280;63025;55.472;38.432;2023-01-29T15:23:01;99868.66;;;-2.37;78.06
74552;BME280;63025;55.472;38.432;2023-01-29T15:25:46;99874.50;;;-2.33;78.35
74552;BME280;63025;55.472;38.432;2023-01-29T15:28:12;99862.69;;;-2.39;77.85
74552;BME280;63025;55.472;38.432;2023-01-29T15:30:39;99878.47;;;-2.39;78.10
74552;BME280;63025;55.472;38.432;2023-01-29T15:33:08;99871.16;;;-2.35;78.52
74552;BME280;63025;55.472;38.432;2023-01-29T15:35:37;99872.78;;;-2.44;78.45